Churchill — TCA3986 — position and weather

sailwx.info

Track history (hours):
 
Tides and Currents Weather Stations Pressure Air Temp Water Temp Dewpoint Dewpoint Depression Visibility Wind Speed Wind Dir Waves Ship Positions

Churchill

Last reported at 2018-May-15 12:00 UTC. Time now 2018-Jun-22 01:54 UTC.
Position N 36°53' E 030°42'.
Warning: this ship's position is 37 days out of date.

Length 12 m.

Type: Passenger vessel. MMSI: 271044433.

Date/timePositionNaut miles runAvg speedWind from/ knotsBaromVisibWave heightAir tempDewpointWater temp
2018-May-15 12:00N 36°53' E 030°42'0 0.2
2018-May-15 11:27N 36°53' E 030°42'0 0.0
2018-May-15 09:18N 36°53' E 030°42'1 3.0
2018-May-15 08:59N 36°52' E 030°43'1 0.0
2018-May-14 14:42N 36°53' E 030°42'0 0.1
2018-May-14 10:49N 36°53' E 030°42'0 1.3
2018-May-14 10:26N 36°52' E 030°42'0 0.4
2018-May-14 09:22N 36°53' E 030°42'0 0.9
2018-May-14 09:00N 36°53' E 030°42'0 0.1
2018-May-14 06:19N 36°53' E 030°42'2 6.0
2018-May-14 06:00N 36°51' E 030°44'1 1.7
2018-May-14 05:09N 36°51' E 030°45'1 6.4
2018-May-14 04:58N 36°51' E 030°44'3 0.1
2018-May-13 09:19N 36°53' E 030°42'2 6.2
2018-May-13 09:00N 36°52' E 030°44'3 5.0
2018-May-13 08:28N 36°51' E 030°47'4 7.1
2018-May-13 07:59N 36°52' E 030°43'1 0.0
2018-May-11 11:42N 36°53' E 030°42'1 4.0
2018-May-11 11:30N 36°52' E 030°42'1 1.7
2018-May-11 10:56N 36°53' E 030°42'0 0.1
2018-May-11 10:26N 36°53' E 030°42'1 2.4
2018-May-11 09:59N 36°52' E 030°43'1 0.6
2018-May-11 08:04N 36°53' E 030°42'0 2.9
2018-May-11 08:00N 36°53' E 030°42'3 6.8
2018-May-11 07:30N 36°51' E 030°45'0 0.4
2018-May-11 07:00N 36°51' E 030°46'4 7.2
2018-May-11 06:29N 36°53' E 030°42'2 3.2
2018-May-11 06:00N 36°52' E 030°43'3 4.1
2018-May-11 05:18N 36°51' E 030°47'2 6.5
2018-May-11 05:00N 36°51' E 030°44'2 0.1
2018-May-09 10:52N 36°53' E 030°42'2 4.7
2018-May-09 10:30N 36°51' E 030°43'1 2.1
2018-May-09 09:56N 36°52' E 030°43'1 0.4
2018-May-09 07:39N 36°53' E 030°42'1 3.6
2018-May-09 07:30N 36°53' E 030°42'3 6.2
2018-May-09 07:00N 36°51' E 030°45'0 0.1
2018-May-09 06:29N 36°51' E 030°45'4 0.1
2018-May-07 11:40N 36°53' E 030°42'1 4.8
2018-May-07 11:30N 36°52' E 030°42'1 0.5
2018-May-07 09:48N 36°53' E 030°42'1 4.1
2018-May-07 09:30N 36°52' E 030°42'  
Track history (hours):
 
Tides and Currents Weather Stations Pressure Air Temp Water Temp Dewpoint Dewpoint Depression Visibility Wind Speed Wind Dir Waves Ship Positions

Churchill

Last reported at 2018-May-15 12:00 UTC. Time now 2018-Jun-22 01:54 UTC.
Position N 36°53' E 030°42'.
Warning: this ship's position is 37 days out of date.

Length 12 m.

Type: Passenger vessel. MMSI: 271044433.

Date/timePositionNaut miles runAvg speedWind from/ knotsBaromVisibWave heightAir tempDewpointWater temp
2018-May-15 12:00N 36°53' E 030°42'0 0.2
2018-May-15 11:27N 36°53' E 030°42'0 0.0
2018-May-15 09:18N 36°53' E 030°42'1 3.0
2018-May-15 08:59N 36°52' E 030°43'1 0.0
2018-May-14 14:42N 36°53' E 030°42'0 0.1
2018-May-14 10:49N 36°53' E 030°42'0 1.3
2018-May-14 10:26N 36°52' E 030°42'0 0.4
2018-May-14 09:22N 36°53' E 030°42'0 0.9
2018-May-14 09:00N 36°53' E 030°42'0 0.1
2018-May-14 06:19N 36°53' E 030°42'2 6.0
2018-May-14 06:00N 36°51' E 030°44'1 1.7
2018-May-14 05:09N 36°51' E 030°45'1 6.4
2018-May-14 04:58N 36°51' E 030°44'3 0.1
2018-May-13 09:19N 36°53' E 030°42'2 6.2
2018-May-13 09:00N 36°52' E 030°44'3 5.0
2018-May-13 08:28N 36°51' E 030°47'4 7.1
2018-May-13 07:59N 36°52' E 030°43'1 0.0
2018-May-11 11:42N 36°53' E 030°42'1 4.0
2018-May-11 11:30N 36°52' E 030°42'1 1.7
2018-May-11 10:56N 36°53' E 030°42'0 0.1
2018-May-11 10:26N 36°53' E 030°42'1 2.4
2018-May-11 09:59N 36°52' E 030°43'1 0.6
2018-May-11 08:04N 36°53' E 030°42'0 2.9
2018-May-11 08:00N 36°53' E 030°42'3 6.8
2018-May-11 07:30N 36°51' E 030°45'0 0.4
2018-May-11 07:00N 36°51' E 030°46'4 7.2
2018-May-11 06:29N 36°53' E 030°42'2 3.2
2018-May-11 06:00N 36°52' E 030°43'3 4.1
2018-May-11 05:18N 36°51' E 030°47'2 6.5
2018-May-11 05:00N 36°51' E 030°44'2 0.1
2018-May-09 10:52N 36°53' E 030°42'2 4.7
2018-May-09 10:30N 36°51' E 030°43'1 2.1
2018-May-09 09:56N 36°52' E 030°43'1 0.4
2018-May-09 07:39N 36°53' E 030°42'1 3.6
2018-May-09 07:30N 36°53' E 030°42'3 6.2
2018-May-09 07:00N 36°51' E 030°45'0 0.1
2018-May-09 06:29N 36°51' E 030°45'4 0.1
2018-May-07 11:40N 36°53' E 030°42'1 4.8
2018-May-07 11:30N 36°52' E 030°42'1 0.5
2018-May-07 09:48N 36°53' E 030°42'1 4.1
2018-May-07 09:30N 36°52' E 030°42'  

Dump ship's entire track history